x

Virginia Beach 64 Nm East Of Virginia Beach, Va (44014) Wave Buoy

1:50 - Fri 30th Jan 2015 All times are EST. -5 hours from GMT.

  • Sig Wave height 3.9ft
  • Swell Direction
  • Peak Period 5s
  • Average Period 4s
  • Wind
    20mph, 25mph gusts
  • Sea Temp 49°f
  • Luft Temp 48°f
  • Sea Pressure 1015.7mb
  • Virginia Beach 64 Nm East Of Virginia Beach, Va
  • Virginia Beach 64 Nm East Of Virginia Beach, Va

More Historic Weather Station data

Upgrade to MSW Pro to gain access to the past 30 days of data for over 8000 Wavebouys and Weather Stations around the globe.

Join Pro

Comparision Forecast

View Surf forecast
   
Fr 01/30 1:50 4ft 5s 4s 20 25 mph 1015.7mb 49f 48f
12:50 4ft 5s 5s 20 25 mph 1016.6mb 49f 47f
Do 01/29 11:50 3.5ft 5s 4s 20 25 mph 1018.1mb 49f 46f
10:50 3.5ft 11s 5s 20 25 mph 1018.7mb 49f 46f
9:50 3.5ft 11s 5s 16 20 mph 1019mb 49f 45f
8:50 3ft 12s 5s 16 20 mph 1019.8mb 49f 44f
7:50 3ft 11s 5s 16 18 mph 1020.2mb 49f 42f
6:50 3.5ft 11s 6s 13 18 mph 1020.9mb 49f 41f
5:50 3.5ft 7s 6s 11 13 mph 1021.5mb 49f 40f
4:50 3.5ft 11s  -  7 11 mph 1022.5mb 49f 40f
3:50 4ft 7s 6s 4 9 mph 1022.7mb 49f 40f
2:50 4ft 9s 6s 4 7 mph 1022.9mb 49f 39f
12:50 4.5ft 8s 6s 2 4 mph 1024.2mb 49f 39f
11:50 5ft 11s 6s 4 9 mph 1025.4mb 49f 39f
10:50 4.5ft 11s 6s 9 11 mph 1026.5mb 48f 38f
9:50 5ft 11s 6s 13 18 mph 1026.7mb 48f 38f
8:50 5.5ft 11s 6s 13 16 mph 1026.7mb 48f 37f
7:50 5ft 12s 6s 13 18 mph 1026.3mb 48f 38f
6:50 5.5ft 11s 6s 13 18 mph 1025.4mb 49f 37f
5:50 6ft 12s 6s 13 18 mph 1025mb 49f 37f
4:50 6ft 12s 6s 13 20 mph 1025mb 49f 37f
3:50 6ft 10s 6s 16 20 mph 1025mb 50f 37f
2:50 6ft 8s 6s 16 20 mph 1025mb 50f 37f
1:50 6ft 8s 6s 18 22 mph 1024.9mb 50f 37f
12:50 7ft 6s 6s 18 22 mph 1024.8mb 50f 37f
Mi 01/28 11:50 7ft 6s 6s 20 29 mph 1024.7mb 50f 37f
10:50 7.5ft 7s 6s 22 27 mph 1024.7mb 50f 38f
9:50 7.5ft 6s 6s 25 29 mph 1024.2mb 50f 38f
8:50 8ft 7s 6s 25 31 mph 1023.6mb 50f 39f
7:50 8.5ft 13s 6s 25 31 mph 1023.3mb 50f 39f
6:50 8.5ft 6s 6s 27 34 mph 1022.2mb 50f 39f
5:50 8ft 6s 6s 27 31 mph 1021.4mb 51f 38f
4:50 9ft 13s 6s 25 31 mph 1020.6mb 51f 37f
3:50 9ft 13s 6s 27 31 mph 1020mb 51f 37f
2:50 9.5ft 13s 6s 27 31 mph 1019.5mb 51f 37f
1:50 9ft 13s 6s 27 31 mph 1019.1mb 51f 36f
12:50 9ft 13s 6s 25 29 mph 1019.4mb 51f 35f
11:50 10ft 12s 7s 27 34 mph 1019.6mb 51f 35f
10:50 11ft 13s 7s 25 34 mph 1019.7mb 51f 35f
9:50 10.5ft 13s 6s 27 34 mph 1019.2mb 51f 34f
8:50 11ft 13s 7s 27 34 mph 1018.6mb 51f 35f
7:50 11ft 14s 7s 27 34 mph 1017.7mb 51f 35f
6:50 11.5ft 11s 7s 27 34 mph 1016.4mb 51f 35f
5:50 12ft 11s 7s 27 31 mph 1015.1mb 51f 36f
4:50 12ft 13s 7s 27 34 mph 1014mb 51f 36f
3:50 12.5ft 13s 8s 25 34 mph 1013.3mb 51f 37f
2:50 11.5ft 12s 7s 25 31 mph 1012.6mb 52f 37f
1:50 11ft 12s 7s 27 34 mph 1011.6mb 52f 37f
12:50 11.5ft 12s 7s 27 34 mph 1010.9mb 52f 38f
Di 01/27 11:50 11.5ft 12s 7s 27 34 mph 1010.5mb 52f 38f
10:50 13ft 13s 8s 25 31 mph 1010.5mb 53f 38f
9:50 13ft 13s 8s 27 34 mph 1009.6mb 53f 39f
8:50 15ft 14s 9s 25 31 mph 1009.2mb 51f 39f
7:50 14ft 14s 8s 27 31 mph 1008.5mb 51f 39f
6:50 15ft 12s 8s 29 36 mph 1007.8mb 52f 39f
5:50 15ft 14s 9s 27 34 mph 1007mb 52f 39f
4:50 14.5ft 13s 8s 27 34 mph 1006.1mb 52f 38f
3:50 15ft 13s 9s 27 34 mph 1005.3mb 51f 38f
2:50 14ft 13s 8s 25 31 mph 1004.9mb 51f 37f
1:50 15ft 13s 8s 25 34 mph 1004.6mb 51f 37f
12:50 13.5ft 13s 8s 25 31 mph 1004.5mb 51f 36f
11:50 14ft 13s 8s 25 31 mph 1004.7mb 51f 36f
10:50 13ft 14s 8s 25 31 mph 1005.2mb 51f 37f
9:50 13ft 13s 8s 25 31 mph 1004.9mb 51f 37f
8:50 12ft 12s 7s 25 31 mph 1004.4mb 51f 37f
7:50 13ft 12s 7s 25 27 mph 1004.1mb 51f 37f
6:50 13ft 11s 7s 25 31 mph 1003.2mb 51f 37f
5:50 12.5ft 11s 7s 29 34 mph 1001.6mb 51f 38f
4:50 14ft 11s 7s 29 36 mph 1001.1mb 52f 39f
3:50 15ft 11s 7s 34 40 mph 1000.2mb 52f 40f
2:50 13.5ft 10s 7s 34 40 mph 999.4mb 52f 42f
1:50 13ft 11s 7s 31 38 mph 998.6mb 52f 44f
12:50 12ft 10s 7s 34 40 mph 997.5mb 52f 46f
Mo 01/26 11:50 10ft 10s 6s 29 36 mph 997.1mb 52f 47f
10:50 9ft 9s 6s 31 38 mph 996.6mb 52f 46f
9:50 8ft 8s 5s 31 38 mph 997mb 52f 45f
8:50 7ft 7s 5s 31 38 mph 997.3mb 52f 46f
7:50 5.5ft 6s 5s 27 31 mph 997.3mb 52f 47f
6:50 4.5ft 7s 4s 27 34 mph 997.3mb 52f 48f
5:50 3.5ft 6s 5s 22 29 mph 997mb 52f 51f
4:50 3.5ft 5s 5s 16 18 mph 997.1mb 52f 51f
3:50 4ft 6s 5s 13 18 mph 997.7mb 52f 52f
2:50 3.5ft 5s 5s 9 11 mph 997.5mb 52f 55f
1:50 3.5ft 8s 5s 13 16 mph 998mb 52f 55f
12:50 3.5ft 4s 4s 13 16 mph 999.2mb 52f 55f
11:50 3ft 8s 5s 16 20 mph 1001.3mb 52f 54f
10:50 3ft 8s 5s 16 20 mph 1002.4mb 52f 54f
9:50 3ft 8s 5s 13 16 mph 1003.9mb 52f 53f
8:50 3ft 8s 5s 11 16 mph 1004.8mb 52f 54f